sensor_id;sensor_type;location;lat;lon;timestamp;P1;durP1;ratioP1;P2;durP2;ratioP2
62401;SDS011;48440;51.224;22.506;2024-03-17T00:01:00;16.85;;;9.85;;
62401;SDS011;48440;51.224;22.506;2024-03-17T00:03:27;15.77;;;10.48;;
62401;SDS011;48440;51.224;22.506;2024-03-17T00:05:59;15.50;;;10.05;;
62401;SDS011;48440;51.224;22.506;2024-03-17T00:08:26;17.60;;;9.98;;
62401;SDS011;48440;51.224;22.506;2024-03-17T00:10:55;15.10;;;9.88;;
62401;SDS011;48440;51.224;22.506;2024-03-17T00:13:21;17.63;;;9.82;;
62401;SDS011;48440;51.224;22.506;2024-03-17T00:15:47;14.43;;;9.30;;
62401;SDS011;48440;51.224;22.506;2024-03-17T00:18:13;14.07;;;8.95;;
62401;SDS011;48440;51.224;22.506;2024-03-17T00:20:39;14.98;;;9.18;;
62401;SDS011;48440;51.224;22.506;2024-03-17T00:23:05;13.18;;;8.45;;
62401;SDS011;48440;51.224;22.506;2024-03-17T00:25:34;14.25;;;8.40;;
62401;SDS011;48440;51.224;22.506;2024-03-17T00:28:04;14.57;;;8.70;;
62401;SDS011;48440;51.224;22.506;2024-03-17T00:30:29;11.93;;;8.13;;
62401;SDS011;48440;51.224;22.506;2024-03-17T00:32:56;14.15;;;7.75;;
62401;SDS011;48440;51.224;22.506;2024-03-17T00:35:23;14.32;;;7.85;;
62401;SDS011;48440;51.224;22.506;2024-03-17T00:37:48;11.73;;;7.68;;
62401;SDS011;48440;51.224;22.506;2024-03-17T00:40:14;12.07;;;7.60;;
62401;SDS011;48440;51.224;22.506;2024-03-17T00:42:41;14.00;;;8.27;;
62401;SDS011;48440;51.224;22.506;2024-03-17T00:45:07;11.73;;;7.88;;
62401;SDS011;48440;51.224;22.506;2024-03-17T00:47:33;10.95;;;7.20;;
62401;SDS011;48440;51.224;22.506;2024-03-17T00:49:58;13.07;;;7.82;;
62401;SDS011;48440;51.224;22.506;2024-03-17T00:52:24;11.45;;;7.65;;
62401;SDS011;48440;51.224;22.506;2024-03-17T00:54:49;11.23;;;7.13;;
62401;SDS011;48440;51.224;22.506;2024-03-17T00:57:15;10.50;;;7.43;;
62401;SDS011;48440;51.224;22.506;2024-03-17T00:59:43;12.20;;;7.50;;
62401;SDS011;48440;51.224;22.506;2024-03-17T01:02:12;10.63;;;7.65;;
62401;SDS011;48440;51.224;22.506;2024-03-17T01:04:41;11.65;;;7.35;;
62401;SDS011;48440;51.224;22.506;2024-03-17T01:07:06;11.35;;;7.95;;
62401;SDS011;48440;51.224;22.506;2024-03-17T01:09:32;12.48;;;8.02;;
62401;SDS011;48440;51.224;22.506;2024-03-17T01:11:57;11.40;;;7.90;;
62401;SDS011;48440;51.224;22.506;2024-03-17T01:14:23;11.65;;;7.55;;
62401;SDS011;48440;51.224;22.506;2024-03-17T01:16:50;13.05;;;7.90;;
62401;SDS011;48440;51.224;22.506;2024-03-17T01:19:16;12.65;;;7.95;;
62401;SDS011;48440;51.224;22.506;2024-03-17T01:21:42;12.77;;;8.25;;
62401;SDS011;48440;51.224;22.506;2024-03-17T01:24:07;12.40;;;8.52;;
62401;SDS011;48440;51.224;22.506;2024-03-17T01:26:33;12.75;;;8.38;;
62401;SDS011;48440;51.224;22.506;2024-03-17T01:28:58;10.38;;;7.70;;
62401;SDS011;48440;51.224;22.506;2024-03-17T01:31:23;11.90;;;8.20;;
62401;SDS011;48440;51.224;22.506;2024-03-17T01:33:50;10.30;;;7.93;;
62401;SDS011;48440;51.224;22.506;2024-03-17T01:36:15;13.15;;;8.48;;
62401;SDS011;48440;51.224;22.506;2024-03-17T01:38:40;11.32;;;8.05;;
62401;SDS011;48440;51.224;22.506;2024-03-17T01:41:06;11.07;;;6.95;;
62401;SDS011;48440;51.224;22.506;2024-03-17T01:43:32;12.75;;;8.45;;
62401;SDS011;48440;51.224;22.506;2024-03-17T01:45:58;12.43;;;7.90;;
62401;SDS011;48440;51.224;22.506;2024-03-17T01:48:24;10.90;;;7.88;;
62401;SDS011;48440;51.224;22.506;2024-03-17T01:50:51;12.02;;;8.60;;
62401;SDS011;48440;51.224;22.506;2024-03-17T01:53:18;10.95;;;8.15;;
62401;SDS011;48440;51.224;22.506;2024-03-17T01:55:45;11.85;;;8.23;;
62401;SDS011;48440;51.224;22.506;2024-03-17T01:58:12;8.57;;;6.10;;
62401;SDS011;48440;51.224;22.506;2024-03-17T02:00:38;6.38;;;3.75;;
62401;SDS011;48440;51.224;22.506;2024-03-17T02:03:05;5.00;;;3.15;;
62401;SDS011;48440;51.224;22.506;2024-03-17T02:05:31;4.57;;;3.03;;
62401;SDS011;48440;51.224;22.506;2024-03-17T02:07:58;7.60;;;3.00;;
62401;SDS011;48440;51.224;22.506;2024-03-17T02:10:24;6.32;;;3.10;;
62401;SDS011;48440;51.224;22.506;2024-03-17T02:12:50;8.23;;;3.08;;
62401;SDS011;48440;51.224;22.506;2024-03-17T02:15:16;9.93;;;3.70;;
62401;SDS011;48440;51.224;22.506;2024-03-17T02:17:41;7.05;;;3.50;;
62401;SDS011;48440;51.224;22.506;2024-03-17T02:20:07;5.20;;;3.22;;
62401;SDS011;48440;51.224;22.506;2024-03-17T02:22:34;9.50;;;3.30;;
62401;SDS011;48440;51.224;22.506;2024-03-17T02:25:00;6.05;;;2.83;;
62401;SDS011;48440;51.224;22.506;2024-03-17T02:27:27;6.05;;;2.65;;
62401;SDS011;48440;51.224;22.506;2024-03-17T02:29:52;5.53;;;2.53;;
62401;SDS011;48440;51.224;22.506;2024-03-17T02:32:17;5.97;;;2.15;;
62401;SDS011;48440;51.224;22.506;2024-03-17T02:34:46;6.03;;;2.00;;
62401;SDS011;48440;51.224;22.506;2024-03-17T02:37:11;6.95;;;2.13;;
62401;SDS011;48440;51.224;22.506;2024-03-17T02:39:37;6.95;;;2.40;;
62401;SDS011;48440;51.224;22.506;2024-03-17T02:42:07;9.02;;;2.72;;
62401;SDS011;48440;51.224;22.506;2024-03-17T02:44:34;8.75;;;3.30;;
62401;SDS011;48440;51.224;22.506;2024-03-17T02:47:01;8.40;;;2.90;;
62401;SDS011;48440;51.224;22.506;2024-03-17T02:49:29;8.68;;;3.83;;
62401;SDS011;48440;51.224;22.506;2024-03-17T02:52:04;10.20;;;3.30;;
62401;SDS011;48440;51.224;22.506;2024-03-17T02:54:31;9.73;;;3.70;;
62401;SDS011;48440;51.224;22.506;2024-03-17T02:56:57;9.23;;;3.30;;
62401;SDS011;48440;51.224;22.506;2024-03-17T02:59:23;8.48;;;2.75;;
62401;SDS011;48440;51.224;22.506;2024-03-17T03:01:48;6.18;;;2.55;;
62401;SDS011;48440;51.224;22.506;2024-03-17T03:04:14;10.70;;;2.75;;
62401;SDS011;48440;51.224;22.506;2024-03-17T03:06:40;7.75;;;2.15;;
62401;SDS011;48440;51.224;22.506;2024-03-17T03:09:06;10.23;;;2.38;;
62401;SDS011;48440;51.224;22.506;2024-03-17T03:11:37;6.45;;;1.90;;
62401;SDS011;48440;51.224;22.506;2024-03-17T03:14:04;6.47;;;1.70;;
62401;SDS011;48440;51.224;22.506;2024-03-17T03:16:30;5.22;;;1.92;;
62401;SDS011;48440;51.224;22.506;2024-03-17T03:18:55;9.85;;;2.20;;
62401;SDS011;48440;51.224;22.506;2024-03-17T03:21:21;8.40;;;2.30;;
62401;SDS011;48440;51.224;22.506;2024-03-17T03:23:46;10.85;;;2.20;;
62401;SDS011;48440;51.224;22.506;2024-03-17T03:26:13;4.97;;;1.98;;
62401;SDS011;48440;51.224;22.506;2024-03-17T03:28:38;6.10;;;1.80;;
62401;SDS011;48440;51.224;22.506;2024-03-17T03:31:04;10.85;;;1.80;;
62401;SDS011;48440;51.224;22.506;2024-03-17T03:33:29;9.60;;;2.10;;
62401;SDS011;48440;51.224;22.506;2024-03-17T03:35:55;6.00;;;2.10;;
62401;SDS011;48440;51.224;22.506;2024-03-17T03:38:21;6.57;;;2.08;;
62401;SDS011;48440;51.224;22.506;2024-03-17T03:40:47;9.70;;;1.92;;
62401;SDS011;48440;51.224;22.506;2024-03-17T03:43:13;6.75;;;1.70;;
62401;SDS011;48440;51.224;22.506;2024-03-17T03:45:39;9.18;;;2.17;;
62401;SDS011;48440;51.224;22.506;2024-03-17T03:48:05;7.93;;;2.08;;
62401;SDS011;48440;51.224;22.506;2024-03-17T03:50:33;7.85;;;2.33;;
62401;SDS011;48440;51.224;22.506;2024-03-17T03:52:59;9.52;;;2.78;;
62401;SDS011;48440;51.224;22.506;2024-03-17T03:55:25;8.70;;;2.42;;
62401;SDS011;48440;51.224;22.506;2024-03-17T03:57:50;10.30;;;2.35;;
62401;SDS011;48440;51.224;22.506;2024-03-17T04:00:20;9.07;;;1.92;;
62401;SDS011;48440;51.224;22.506;2024-03-17T04:02:49;7.35;;;2.20;;
62401;SDS011;48440;51.224;22.506;2024-03-17T04:05:16;7.55;;;2.00;;
62401;SDS011;48440;51.224;22.506;2024-03-17T04:07:45;8.27;;;1.95;;
62401;SDS011;48440;51.224;22.506;2024-03-17T04:10:15;6.45;;;1.85;;
62401;SDS011;48440;51.224;22.506;2024-03-17T04:12:43;12.38;;;2.83;;
62401;SDS011;48440;51.224;22.506;2024-03-17T04:15:09;10.00;;;1.77;;
62401;SDS011;48440;51.224;22.506;2024-03-17T04:17:37;9.38;;;1.80;;
62401;SDS011;48440;51.224;22.506;2024-03-17T04:20:03;6.28;;;1.85;;
62401;SDS011;48440;51.224;22.506;2024-03-17T04:22:34;7.68;;;2.00;;
62401;SDS011;48440;51.224;22.506;2024-03-17T04:24:59;8.95;;;2.00;;
62401;SDS011;48440;51.224;22.506;2024-03-17T04:27:28;8.38;;;1.77;;
62401;SDS011;48440;51.224;22.506;2024-03-17T04:29:54;5.70;;;1.70;;
62401;SDS011;48440;51.224;22.506;2024-03-17T04:32:20;8.65;;;2.20;;
62401;SDS011;48440;51.224;22.506;2024-03-17T04:34:46;8.77;;;2.45;;
62401;SDS011;48440;51.224;22.506;2024-03-17T04:37:12;8.02;;;1.80;;
62401;SDS011;48440;51.224;22.506;2024-03-17T04:39:38;8.52;;;1.95;;
62401;SDS011;48440;51.224;22.506;2024-03-17T04:42:05;5.55;;;1.52;;
62401;SDS011;48440;51.224;22.506;2024-03-17T04:44:33;6.22;;;1.60;;
62401;SDS011;48440;51.224;22.506;2024-03-17T04:46:59;7.28;;;1.65;;
62401;SDS011;48440;51.224;22.506;2024-03-17T04:49:24;10.48;;;2.42;;
62401;SDS011;48440;51.224;22.506;2024-03-17T04:51:50;6.90;;;2.80;;
62401;SDS011;48440;51.224;22.506;2024-03-17T04:54:15;8.98;;;2.33;;
62401;SDS011;48440;51.224;22.506;2024-03-17T04:56:41;7.38;;;2.03;;
62401;SDS011;48440;51.224;22.506;2024-03-17T04:59:06;8.68;;;2.53;;
62401;SDS011;48440;51.224;22.506;2024-03-17T05:01:32;7.07;;;2.00;;
62401;SDS011;48440;51.224;22.506;2024-03-17T05:04:02;11.63;;;2.20;;
62401;SDS011;48440;51.224;22.506;2024-03-17T05:06:28;9.18;;;2.20;;
62401;SDS011;48440;51.224;22.506;2024-03-17T05:08:53;6.57;;;2.08;;
62401;SDS011;48440;51.224;22.506;2024-03-17T05:11:19;9.50;;;2.40;;
62401;SDS011;48440;51.224;22.506;2024-03-17T05:13:45;6.05;;;1.75;;
62401;SDS011;48440;51.224;22.506;2024-03-17T05:16:10;6.50;;;2.10;;
62401;SDS011;48440;51.224;22.506;2024-03-17T05:18:36;12.93;;;2.15;;
62401;SDS011;48440;51.224;22.506;2024-03-17T05:21:04;7.57;;;2.53;;
62401;SDS011;48440;51.224;22.506;2024-03-17T05:23:32;10.77;;;2.45;;
62401;SDS011;48440;51.224;22.506;2024-03-17T05:25:58;6.75;;;2.45;;
62401;SDS011;48440;51.224;22.506;2024-03-17T05:28:25;7.32;;;2.17;;
62401;SDS011;48440;51.224;22.506;2024-03-17T05:30:51;9.55;;;1.98;;
62401;SDS011;48440;51.224;22.506;2024-03-17T05:33:17;5.93;;;1.73;;
62401;SDS011;48440;51.224;22.506;2024-03-17T05:35:50;6.90;;;1.75;;
62401;SDS011;48440;51.224;22.506;2024-03-17T05:38:26;10.82;;;2.25;;
62401;SDS011;48440;51.224;22.506;2024-03-17T05:40:56;8.93;;;2.10;;
62401;SDS011;48440;51.224;22.506;2024-03-17T05:43:23;11.40;;;2.70;;
62401;SDS011;48440;51.224;22.506;2024-03-17T05:45:52;10.07;;;2.55;;
62401;SDS011;48440;51.224;22.506;2024-03-17T05:48:19;10.63;;;2.60;;
62401;SDS011;48440;51.224;22.506;2024-03-17T05:50:45;13.75;;;2.97;;
62401;SDS011;48440;51.224;22.506;2024-03-17T05:53:11;9.70;;;2.75;;
62401;SDS011;48440;51.224;22.506;2024-03-17T05:55:37;7.80;;;2.15;;
62401;SDS011;48440;51.224;22.506;2024-03-17T05:58:03;10.70;;;2.88;;
62401;SDS011;48440;51.224;22.506;2024-03-17T06:00:29;10.40;;;2.60;;
62401;SDS011;48440;51.224;22.506;2024-03-17T06:02:56;8.25;;;2.47;;
62401;SDS011;48440;51.224;22.506;2024-03-17T06:05:21;10.20;;;2.10;;
62401;SDS011;48440;51.224;22.506;2024-03-17T06:07:47;15.60;;;2.72;;
62401;SDS011;48440;51.224;22.506;2024-03-17T06:10:13;10.07;;;2.58;;
62401;SDS011;48440;51.224;22.506;2024-03-17T06:12:39;6.75;;;2.17;;
62401;SDS011;48440;51.224;22.506;2024-03-17T06:15:04;6.93;;;2.35;;
62401;SDS011;48440;51.224;22.506;2024-03-17T06:17:31;8.10;;;2.50;;
62401;SDS011;48440;51.224;22.506;2024-03-17T06:19:56;7.80;;;2.38;;
62401;SDS011;48440;51.224;22.506;2024-03-17T06:22:22;6.72;;;2.00;;
62401;SDS011;48440;51.224;22.506;2024-03-17T06:24:48;7.20;;;2.38;;
62401;SDS011;48440;51.224;22.506;2024-03-17T06:27:14;11.68;;;2.70;;
62401;SDS011;48440;51.224;22.506;2024-03-17T06:29:40;10.52;;;2.53;;
62401;SDS011;48440;51.224;22.506;2024-03-17T06:32:05;10.40;;;2.67;;
62401;SDS011;48440;51.224;22.506;2024-03-17T06:34:30;11.20;;;2.75;;
62401;SDS011;48440;51.224;22.506;2024-03-17T06:36:56;10.05;;;2.90;;
62401;SDS011;48440;51.224;22.506;2024-03-17T06:39:21;8.02;;;2.72;;
62401;SDS011;48440;51.224;22.506;2024-03-17T06:41:47;11.82;;;2.60;;
62401;SDS011;48440;51.224;22.506;2024-03-17T06:44:12;11.98;;;2.58;;
62401;SDS011;48440;51.224;22.506;2024-03-17T06:46:38;11.20;;;2.75;;
62401;SDS011;48440;51.224;22.506;2024-03-17T06:49:03;9.70;;;3.00;;
62401;SDS011;48440;51.224;22.506;2024-03-17T06:51:28;9.75;;;2.33;;
62401;SDS011;48440;51.224;22.506;2024-03-17T06:53:54;9.60;;;2.67;;
62401;SDS011;48440;51.224;22.506;2024-03-17T06:56:20;7.85;;;2.42;;
62401;SDS011;48440;51.224;22.506;2024-03-17T06:58:45;10.27;;;2.90;;
62401;SDS011;48440;51.224;22.506;2024-03-17T07:01:10;9.13;;;2.92;;
62401;SDS011;48440;51.224;22.506;2024-03-17T07:03:36;7.95;;;2.10;;
62401;SDS011;48440;51.224;22.506;2024-03-17T07:06:01;12.15;;;5.50;;
62401;SDS011;48440;51.224;22.506;2024-03-17T07:08:28;5.57;;;2.60;;
62401;SDS011;48440;51.224;22.506;2024-03-17T07:10:55;10.48;;;2.72;;
62401;SDS011;48440;51.224;22.506;2024-03-17T07:13:25;9.10;;;2.67;;
62401;SDS011;48440;51.224;22.506;2024-03-17T07:15:51;7.28;;;2.75;;
62401;SDS011;48440;51.224;22.506;2024-03-17T07:18:16;9.63;;;2.60;;
62401;SDS011;48440;51.224;22.506;2024-03-17T07:20:41;8.27;;;2.33;;
62401;SDS011;48440;51.224;22.506;2024-03-17T07:23:07;11.13;;;3.05;;
62401;SDS011;48440;51.224;22.506;2024-03-17T07:25:33;11.40;;;2.85;;
62401;SDS011;48440;51.224;22.506;2024-03-17T07:27:58;8.98;;;2.22;;
62401;SDS011;48440;51.224;22.506;2024-03-17T07:30:23;12.00;;;3.03;;
62401;SDS011;48440;51.224;22.506;2024-03-17T07:32:49;6.88;;;2.33;;
62401;SDS011;48440;51.224;22.506;2024-03-17T07:35:14;9.48;;;2.38;;
62401;SDS011;48440;51.224;22.506;2024-03-17T07:37:40;7.05;;;2.03;;
62401;SDS011;48440;51.224;22.506;2024-03-17T07:40:05;7.38;;;2.30;;
62401;SDS011;48440;51.224;22.506;2024-03-17T07:42:36;10.77;;;2.25;;
62401;SDS011;48440;51.224;22.506;2024-03-17T07:45:01;8.77;;;2.50;;
62401;SDS011;48440;51.224;22.506;2024-03-17T07:47:27;6.55;;;2.08;;
62401;SDS011;48440;51.224;22.506;2024-03-17T07:50:00;9.30;;;2.30;;
62401;SDS011;48440;51.224;22.506;2024-03-17T07:52:29;7.57;;;2.47;;
62401;SDS011;48440;51.224;22.506;2024-03-17T07:54:55;14.68;;;2.53;;
62401;SDS011;48440;51.224;22.506;2024-03-17T07:57:21;5.32;;;2.05;;
62401;SDS011;48440;51.224;22.506;2024-03-17T07:59:49;9.80;;;2.75;;
62401;SDS011;48440;51.224;22.506;2024-03-17T08:02:16;7.90;;;2.22;;
62401;SDS011;48440;51.224;22.506;2024-03-17T08:04:42;11.18;;;2.80;;
62401;SDS011;48440;51.224;22.506;2024-03-17T08:07:09;9.82;;;2.75;;
62401;SDS011;48440;51.224;22.506;2024-03-17T08:09:35;8.35;;;3.00;;
62401;SDS011;48440;51.224;22.506;2024-03-17T08:12:01;11.73;;;3.30;;
62401;SDS011;48440;51.224;22.506;2024-03-17T08:14:29;14.27;;;2.75;;
62401;SDS011;48440;51.224;22.506;2024-03-17T08:16:55;9.90;;;2.78;;
62401;SDS011;48440;51.224;22.506;2024-03-17T08:19:20;6.00;;;2.60;;
62401;SDS011;48440;51.224;22.506;2024-03-17T08:21:45;7.55;;;2.97;;
62401;SDS011;48440;51.224;22.506;2024-03-17T08:24:11;8.85;;;3.00;;
62401;SDS011;48440;51.224;22.506;2024-03-17T08:26:38;11.68;;;3.38;;
62401;SDS011;48440;51.224;22.506;2024-03-17T08:29:05;8.40;;;3.25;;
62401;SDS011;48440;51.224;22.506;2024-03-17T08:31:31;7.80;;;3.10;;
62401;SDS011;48440;51.224;22.506;2024-03-17T08:33:57;8.70;;;3.03;;
62401;SDS011;48440;51.224;22.506;2024-03-17T08:36:22;5.78;;;2.88;;
62401;SDS011;48440;51.224;22.506;2024-03-17T08:38:48;8.15;;;3.22;;
62401;SDS011;48440;51.224;22.506;2024-03-17T08:41:13;10.40;;;2.80;;
62401;SDS011;48440;51.224;22.506;2024-03-17T08:43:39;7.68;;;2.85;;
62401;SDS011;48440;51.224;22.506;2024-03-17T08:46:09;9.82;;;3.10;;
62401;SDS011;48440;51.224;22.506;2024-03-17T08:48:36;9.85;;;3.47;;
62401;SDS011;48440;51.224;22.506;2024-03-17T08:51:04;7.35;;;2.97;;
62401;SDS011;48440;51.224;22.506;2024-03-17T08:53:30;13.55;;;3.30;;
62401;SDS011;48440;51.224;22.506;2024-03-17T08:55:57;7.07;;;2.88;;
62401;SDS011;48440;51.224;22.506;2024-03-17T08:58:23;7.13;;;3.08;;
62401;SDS011;48440;51.224;22.506;2024-03-17T09:00:49;5.47;;;2.72;;
62401;SDS011;48440;51.224;22.506;2024-03-17T09:03:16;12.70;;;3.47;;
62401;SDS011;48440;51.224;22.506;2024-03-17T09:05:42;11.90;;;3.75;;
62401;SDS011;48440;51.224;22.506;2024-03-17T09:08:20;8.73;;;3.55;;
62401;SDS011;48440;51.224;22.506;2024-03-17T09:10:47;7.43;;;3.47;;
62401;SDS011;48440;51.224;22.506;2024-03-17T09:13:14;8.68;;;3.58;;
62401;SDS011;48440;51.224;22.506;2024-03-17T09:15:57;12.43;;;3.78;;
62401;SDS011;48440;51.224;22.506;2024-03-17T09:18:24;8.40;;;3.67;;
62401;SDS011;48440;51.224;22.506;2024-03-17T09:21:03;7.18;;;3.70;;
62401;SDS011;48440;51.224;22.506;2024-03-17T09:23:30;8.60;;;3.10;;
62401;SDS011;48440;51.224;22.506;2024-03-17T09:26:05;8.50;;;3.60;;
62401;SDS011;48440;51.224;22.506;2024-03-17T09:28:35;6.90;;;3.58;;
62401;SDS011;48440;51.224;22.506;2024-03-17T09:31:01;9.20;;;3.13;;
62401;SDS011;48440;51.224;22.506;2024-03-17T09:33:28;8.65;;;3.05;;
62401;SDS011;48440;51.224;22.506;2024-03-17T09:38:20;9.50;;;2.95;;
62401;SDS011;48440;51.224;22.506;2024-03-17T09:40:46;8.05;;;3.10;;
62401;SDS011;48440;51.224;22.506;2024-03-17T09:43:12;8.57;;;3.05;;
62401;SDS011;48440;51.224;22.506;2024-03-17T09:45:38;7.70;;;3.33;;
62401;SDS011;48440;51.224;22.506;2024-03-17T09:48:03;5.28;;;2.53;;
62401;SDS011;48440;51.224;22.506;2024-03-17T09:50:29;6.68;;;2.65;;
62401;SDS011;48440;51.224;22.506;2024-03-17T09:52:56;7.40;;;3.03;;
62401;SDS011;48440;51.224;22.506;2024-03-17T09:55:22;7.28;;;2.65;;
62401;SDS011;48440;51.224;22.506;2024-03-17T09:57:49;14.40;;;3.15;;
62401;SDS011;48440;51.224;22.506;2024-03-17T10:00:14;6.68;;;2.80;;
62401;SDS011;48440;51.224;22.506;2024-03-17T10:02:41;5.85;;;3.13;;
62401;SDS011;48440;51.224;22.506;2024-03-17T10:05:21;8.10;;;2.90;;
62401;SDS011;48440;51.224;22.506;2024-03-17T10:07:50;6.95;;;2.88;;
62401;SDS011;48440;51.224;22.506;2024-03-17T10:10:17;11.27;;;3.22;;
62401;SDS011;48440;51.224;22.506;2024-03-17T10:12:51;11.52;;;3.15;;
62401;SDS011;48440;51.224;22.506;2024-03-17T10:15:17;5.07;;;2.30;;
62401;SDS011;48440;51.224;22.506;2024-03-17T10:17:43;6.13;;;2.50;;
62401;SDS011;48440;51.224;22.506;2024-03-17T10:22:59;9.25;;;3.13;;
62401;SDS011;48440;51.224;22.506;2024-03-17T10:25:27;5.50;;;2.70;;
62401;SDS011;48440;51.224;22.506;2024-03-17T10:27:54;10.60;;;2.85;;
62401;SDS011;48440;51.224;22.506;2024-03-17T10:30:20;9.40;;;2.95;;
62401;SDS011;48440;51.224;22.506;2024-03-17T10:32:51;6.35;;;2.42;;
62401;SDS011;48440;51.224;22.506;2024-03-17T10:35:29;7.28;;;2.50;;
62401;SDS011;48440;51.224;22.506;2024-03-17T10:37:59;8.27;;;2.45;;
62401;SDS011;48440;51.224;22.506;2024-03-17T10:40:26;10.65;;;3.15;;
62401;SDS011;48440;51.224;22.506;2024-03-17T10:42:54;9.45;;;3.03;;
62401;SDS011;48440;51.224;22.506;2024-03-17T10:45:20;10.35;;;2.88;;
62401;SDS011;48440;51.224;22.506;2024-03-17T10:47:49;8.20;;;2.95;;
62401;SDS011;48440;51.224;22.506;2024-03-17T10:50:17;9.07;;;3.05;;
62401;SDS011;48440;51.224;22.506;2024-03-17T10:52:48;9.13;;;2.78;;
62401;SDS011;48440;51.224;22.506;2024-03-17T10:55:24;9.10;;;2.50;;
62401;SDS011;48440;51.224;22.506;2024-03-17T10:57:51;8.05;;;2.40;;
62401;SDS011;48440;51.224;22.506;2024-03-17T11:00:19;6.45;;;2.50;;
62401;SDS011;48440;51.224;22.506;2024-03-17T11:02:50;6.78;;;2.60;;
62401;SDS011;48440;51.224;22.506;2024-03-17T11:07:46;8.27;;;2.42;;
62401;SDS011;48440;51.224;22.506;2024-03-17T11:10:21;6.53;;;2.97;;
62401;SDS011;48440;51.224;22.506;2024-03-17T11:12:49;6.97;;;2.55;;
62401;SDS011;48440;51.224;22.506;2024-03-17T11:17:44;5.57;;;3.28;;
62401;SDS011;48440;51.224;22.506;2024-03-17T11:20:14;6.22;;;2.80;;
62401;SDS011;48440;51.224;22.506;2024-03-17T11:22:42;5.78;;;2.80;;
62401;SDS011;48440;51.224;22.506;2024-03-17T11:27:55;6.82;;;2.45;;
62401;SDS011;48440;51.224;22.506;2024-03-17T11:47:02;5.55;;;2.40;;
62401;SDS011;48440;51.224;22.506;2024-03-17T11:49:33;7.32;;;2.33;;
62401;SDS011;48440;51.224;22.506;2024-03-17T11:52:15;5.22;;;2.30;;
62401;SDS011;48440;51.224;22.506;2024-03-17T11:57:11;6.18;;;2.50;;
62401;SDS011;48440;51.224;22.506;2024-03-17T11:59:39;5.55;;;2.53;;
62401;SDS011;48440;51.224;22.506;2024-03-17T12:04:51;6.72;;;2.67;;
62401;SDS011;48440;51.224;22.506;2024-03-17T12:07:22;9.95;;;3.00;;
62401;SDS011;48440;51.224;22.506;2024-03-17T12:09:48;10.02;;;2.72;;
62401;SDS011;48440;51.224;22.506;2024-03-17T12:12:19;7.70;;;2.70;;
62401;SDS011;48440;51.224;22.506;2024-03-17T12:14:45;5.38;;;2.85;;
62401;SDS011;48440;51.224;22.506;2024-03-17T12:17:12;6.00;;;2.47;;
62401;SDS011;48440;51.224;22.506;2024-03-17T12:19:44;7.20;;;2.55;;
62401;SDS011;48440;51.224;22.506;2024-03-17T12:22:14;8.82;;;2.75;;
62401;SDS011;48440;51.224;22.506;2024-03-17T12:24:42;5.20;;;2.30;;
62401;SDS011;48440;51.224;22.506;2024-03-17T12:27:15;8.73;;;2.95;;
62401;SDS011;48440;51.224;22.506;2024-03-17T12:29:50;5.82;;;2.47;;
62401;SDS011;48440;51.224;22.506;2024-03-17T12:32:16;6.13;;;2.80;;
62401;SDS011;48440;51.224;22.506;2024-03-17T12:34:44;8.25;;;2.28;;
62401;SDS011;48440;51.224;22.506;2024-03-17T12:37:17;7.75;;;2.30;;
62401;SDS011;48440;51.224;22.506;2024-03-17T12:39:44;7.90;;;2.38;;
62401;SDS011;48440;51.224;22.506;2024-03-17T12:42:17;6.13;;;2.50;;
62401;SDS011;48440;51.224;22.506;2024-03-17T12:44:49;4.78;;;2.03;;
62401;SDS011;48440;51.224;22.506;2024-03-17T12:47:17;9.95;;;2.97;;
62401;SDS011;48440;51.224;22.506;2024-03-17T12:49:48;5.82;;;2.60;;
62401;SDS011;48440;51.224;22.506;2024-03-17T12:52:51;5.10;;;2.40;;
62401;SDS011;48440;51.224;22.506;2024-03-17T12:55:09;4.78;;;2.72;;
62401;SDS011;48440;51.224;22.506;2024-03-17T13:00:47;6.97;;;3.08;;
62401;SDS011;48440;51.224;22.506;2024-03-17T13:03:25;6.63;;;2.72;;
62401;SDS011;48440;51.224;22.506;2024-03-17T13:05:54;7.45;;;2.72;;
62401;SDS011;48440;51.224;22.506;2024-03-17T13:08:20;9.00;;;2.75;;
62401;SDS011;48440;51.224;22.506;2024-03-17T13:10:46;5.90;;;2.30;;
62401;SDS011;48440;51.224;22.506;2024-03-17T13:13:12;8.85;;;2.75;;
62401;SDS011;48440;51.224;22.506;2024-03-17T13:15:41;5.97;;;2.50;;
62401;SDS011;48440;51.224;22.506;2024-03-17T13:18:08;3.72;;;2.10;;
62401;SDS011;48440;51.224;22.506;2024-03-17T13:20:34;3.65;;;2.50;;
62401;SDS011;48440;51.224;22.506;2024-03-17T13:23:00;5.05;;;2.15;;
62401;SDS011;48440;51.224;22.506;2024-03-17T13:25:29;8.20;;;2.67;;
62401;SDS011;48440;51.224;22.506;2024-03-17T13:27:59;8.75;;;2.58;;
62401;SDS011;48440;51.224;22.506;2024-03-17T13:30:26;7.35;;;2.50;;
62401;SDS011;48440;51.224;22.506;2024-03-17T13:32:53;5.22;;;2.55;;
62401;SDS011;48440;51.224;22.506;2024-03-17T13:35:26;9.13;;;2.50;;
62401;SDS011;48440;51.224;22.506;2024-03-17T13:37:54;8.40;;;2.28;;
62401;SDS011;48440;51.224;22.506;2024-03-17T13:40:20;6.22;;;2.60;;
62401;SDS011;48440;51.224;22.506;2024-03-17T13:42:50;5.30;;;2.30;;
62401;SDS011;48440;51.224;22.506;2024-03-17T13:45:17;4.22;;;2.22;;
62401;SDS011;48440;51.224;22.506;2024-03-17T13:47:52;4.35;;;2.00;;
62401;SDS011;48440;51.224;22.506;2024-03-17T13:50:21;8.60;;;2.90;;
62401;SDS011;48440;51.224;22.506;2024-03-17T13:52:47;7.22;;;2.28;;
62401;SDS011;48440;51.224;22.506;2024-03-17T13:55:17;6.22;;;2.65;;
62401;SDS011;48440;51.224;22.506;2024-03-17T13:57:45;5.20;;;2.45;;
62401;SDS011;48440;51.224;22.506;2024-03-17T14:00:14;4.35;;;2.63;;
62401;SDS011;48440;51.224;22.506;2024-03-17T14:02:44;6.07;;;2.55;;
62401;SDS011;48440;51.224;22.506;2024-03-17T14:05:14;6.93;;;2.28;;
62401;SDS011;48440;51.224;22.506;2024-03-17T14:07:41;7.20;;;2.70;;
62401;SDS011;48440;51.224;22.506;2024-03-17T14:10:07;7.20;;;2.92;;
62401;SDS011;48440;51.224;22.506;2024-03-17T14:12:37;7.68;;;3.33;;
62401;SDS011;48440;51.224;22.506;2024-03-17T14:15:04;9.93;;;3.30;;
62401;SDS011;48440;51.224;22.506;2024-03-17T14:17:31;7.70;;;3.30;;
62401;SDS011;48440;51.224;22.506;2024-03-17T14:19:56;6.88;;;3.40;;
62401;SDS011;48440;51.224;22.506;2024-03-17T14:22:22;7.30;;;3.10;;
62401;SDS011;48440;51.224;22.506;2024-03-17T14:24:47;8.07;;;3.75;;
62401;SDS011;48440;51.224;22.506;2024-03-17T14:27:14;10.48;;;4.18;;
62401;SDS011;48440;51.224;22.506;2024-03-17T14:29:41;11.02;;;3.55;;
62401;SDS011;48440;51.224;22.506;2024-03-17T14:32:06;9.75;;;3.53;;
62401;SDS011;48440;51.224;22.506;2024-03-17T14:34:32;11.10;;;3.90;;
62401;SDS011;48440;51.224;22.506;2024-03-17T14:37:01;9.85;;;3.30;;
62401;SDS011;48440;51.224;22.506;2024-03-17T14:39:27;7.07;;;3.20;;
62401;SDS011;48440;51.224;22.506;2024-03-17T14:41:54;10.05;;;3.75;;
62401;SDS011;48440;51.224;22.506;2024-03-17T14:44:20;14.85;;;5.40;;
62401;SDS011;48440;51.224;22.506;2024-03-17T14:46:46;11.48;;;4.93;;
62401;SDS011;48440;51.224;22.506;2024-03-17T14:49:13;15.25;;;6.05;;
62401;SDS011;48440;51.224;22.506;2024-03-17T14:51:38;13.18;;;5.80;;
62401;SDS011;48440;51.224;22.506;2024-03-17T14:54:04;12.95;;;5.47;;
62401;SDS011;48440;51.224;22.506;2024-03-17T14:56:30;14.13;;;5.55;;
62401;SDS011;48440;51.224;22.506;2024-03-17T14:58:56;13.02;;;5.00;;
62401;SDS011;48440;51.224;22.506;2024-03-17T15:01:21;9.73;;;4.70;;
62401;SDS011;48440;51.224;22.506;2024-03-17T15:03:47;8.60;;;4.25;;
62401;SDS011;48440;51.224;22.506;2024-03-17T15:06:12;8.40;;;3.97;;
62401;SDS011;48440;51.224;22.506;2024-03-17T15:08:39;7.55;;;3.75;;